createdAt,value
2023-04-30T00:00:13.914Z,100473.75
2023-04-30T00:03:05.724Z,100476.36
2023-04-30T00:05:38.495Z,100474.80
2023-04-30T00:08:19.738Z,100478.30
2023-04-30T00:10:57.851Z,100484.52
2023-04-30T00:13:27.349Z,100484.60
2023-04-30T00:15:56.934Z,100488.98
2023-04-30T00:18:34.235Z,100489.61
2023-04-30T00:21:05.740Z,100487.52
2023-04-30T00:23:37.885Z,100492.38
2023-04-30T00:26:17.759Z,100493.70
2023-04-30T00:28:54.368Z,100494.93
2023-04-30T00:31:25.442Z,100499.09
2023-04-30T00:33:57.659Z,100500.54
2023-04-30T00:36:42.010Z,100505.02
2023-04-30T00:39:13.966Z,100508.55
2023-04-30T00:41:43.376Z,100510.39
2023-04-30T00:44:12.473Z,100512.23
2023-04-30T00:46:41.481Z,100516.45
2023-04-30T00:49:10.573Z,100519.30
2023-04-30T00:51:42.298Z,100522.96
2023-04-30T00:54:20.932Z,100524.90
2023-04-30T00:57:17.927Z,100522.02
2023-04-30T00:59:47.160Z,100535.08
2023-04-30T01:02:21.526Z,100539.45
2023-04-30T01:05:00.317Z,100535.09
2023-04-30T01:07:44.565Z,100537.45
2023-04-30T01:10:23.889Z,100535.94
2023-04-30T01:13:05.002Z,100531.27
2023-04-30T01:16:34.814Z,100530.48
2023-04-30T01:19:50.984Z,100531.44
2023-04-30T01:22:32.382Z,100530.20
2023-04-30T01:25:46.267Z,100529.62
2023-04-30T01:28:24.531Z,100531.92
2023-04-30T01:31:06.129Z,100537.27
2023-04-30T01:33:35.315Z,100542.00
2023-04-30T01:36:17.561Z,100547.92
2023-04-30T01:39:10.920Z,100548.58
2023-04-30T01:42:26.906Z,100551.40
2023-04-30T01:45:52.251Z,100552.22
2023-04-30T01:48:44.619Z,100556.54
2023-04-30T01:51:40.040Z,100563.05
2023-04-30T01:54:58.480Z,100565.36
2023-04-30T01:57:46.013Z,100567.50
2023-04-30T02:00:18.065Z,100573.33
2023-04-30T02:02:51.507Z,100572.05
2023-04-30T02:05:40.289Z,100574.12
2023-04-30T02:08:16.126Z,100576.35
2023-04-30T02:10:48.343Z,100577.23
2023-04-30T02:13:22.463Z,100577.76
2023-04-30T02:15:53.581Z,100577.90
2023-04-30T02:18:22.562Z,100580.49
2023-04-30T02:20:51.455Z,100584.64
2023-04-30T02:23:25.713Z,100588.08
2023-04-30T02:25:55.222Z,100593.90
2023-04-30T02:28:24.285Z,100597.48
2023-04-30T02:30:55.165Z,100601.71
2023-04-30T02:33:26.676Z,100600.46
2023-04-30T02:35:55.724Z,100600.43
2023-04-30T02:38:26.931Z,100605.61
2023-04-30T02:40:55.755Z,100612.31
2023-04-30T02:43:26.857Z,100612.21
2023-04-30T02:46:00.290Z,100610.01
2023-04-30T02:48:31.632Z,100615.64
2023-04-30T02:51:00.586Z,100614.66
2023-04-30T02:53:35.018Z,100612.85
2023-04-30T02:56:07.696Z,100612.61
2023-04-30T02:58:41.164Z,100615.98
2023-04-30T03:01:17.588Z,100618.35
2023-04-30T03:03:55.880Z,100619.51
2023-04-30T03:06:36.029Z,100623.59
2023-04-30T03:09:06.708Z,100625.26
2023-04-30T03:11:45.988Z,100624.98
2023-04-30T03:14:48.349Z,100624.73
2023-04-30T03:17:21.546Z,100630.20
2023-04-30T03:20:03.464Z,100630.27
2023-04-30T03:22:38.254Z,100636.58
2023-04-30T03:25:13.803Z,100637.66
2023-04-30T03:27:49.911Z,100637.03
2023-04-30T03:30:22.532Z,100642.98
2023-04-30T03:33:12.952Z,100644.61
2023-04-30T03:35:57.825Z,100637.90
2023-04-30T03:38:32.359Z,100639.83
2023-04-30T03:41:07.168Z,100643.89
2023-04-30T03:43:45.598Z,100645.44
2023-04-30T03:46:21.761Z,100646.61
2023-04-30T03:49:01.464Z,100645.70
2023-04-30T03:51:41.787Z,100653.71
2023-04-30T03:54:12.035Z,100650.86
2023-04-30T03:56:52.647Z,100664.33
2023-04-30T03:59:24.278Z,100667.05
2023-04-30T04:01:58.242Z,100666.93
2023-04-30T04:04:31.385Z,100665.65
2023-04-30T04:07:15.486Z,100669.05
2023-04-30T04:09:58.525Z,100675.16
2023-04-30T04:12:33.563Z,100679.42
2023-04-30T04:15:25.912Z,100685.88
2023-04-30T04:18:01.730Z,100692.09
2023-04-30T04:20:42.242Z,100695.58
2023-04-30T04:23:32.454Z,100701.02
2023-04-30T04:26:37.042Z,100709.50
2023-04-30T04:29:19.345Z,100712.17
2023-04-30T04:31:55.423Z,100713.34
2023-04-30T04:34:43.832Z,100720.20
2023-04-30T04:37:22.817Z,100724.84
2023-04-30T04:40:10.323Z,100725.27
2023-04-30T04:42:55.380Z,100727.62
2023-04-30T04:45:31.500Z,100733.78
2023-04-30T04:48:01.664Z,100742.45
2023-04-30T04:50:34.313Z,100743.14
2023-04-30T04:53:34.163Z,100745.52
2023-04-30T04:56:07.130Z,100745.81
2023-04-30T04:58:42.038Z,100751.23
2023-04-30T05:01:30.437Z,100753.77
2023-04-30T05:04:23.367Z,100756.71
2023-04-30T05:07:07.743Z,100760.02
2023-04-30T05:09:37.067Z,100766.39
2023-04-30T05:12:06.384Z,100769.02
2023-04-30T05:14:41.139Z,100770.81
2023-04-30T05:17:19.530Z,100774.92
2023-04-30T05:19:50.538Z,100776.04
2023-04-30T05:22:23.733Z,100783.92
2023-04-30T05:24:56.490Z,100790.34
2023-04-30T05:27:32.784Z,100790.02
2023-04-30T05:30:04.906Z,100788.54
2023-04-30T05:32:34.947Z,100793.77
2023-04-30T05:35:08.233Z,100795.43
2023-04-30T05:37:40.834Z,100800.08
2023-04-30T05:40:30.392Z,100804.39
2023-04-30T05:43:02.269Z,100808.90
2023-04-30T05:45:52.217Z,100810.90
2023-04-30T05:48:23.165Z,100805.53
2023-04-30T05:50:55.852Z,100814.06
2023-04-30T05:53:31.550Z,100813.07
2023-04-30T05:56:06.936Z,100810.55
2023-04-30T05:58:41.655Z,100811.39
2023-04-30T06:01:14.943Z,100814.88
2023-04-30T06:03:59.891Z,100820.36
2023-04-30T06:06:32.820Z,100822.90
2023-04-30T06:09:05.285Z,100825.87
2023-04-30T06:11:34.505Z,100830.85
2023-04-30T06:14:07.957Z,100831.45
2023-04-30T06:16:41.768Z,100831.80
2023-04-30T06:19:10.790Z,100830.41
2023-04-30T06:21:47.281Z,100831.81
2023-04-30T06:24:16.650Z,100840.05
2023-04-30T06:26:47.957Z,100838.88
2023-04-30T06:29:18.156Z,100841.52
2023-04-30T06:31:47.219Z,100845.02
2023-04-30T06:34:18.983Z,100853.73
2023-04-30T06:36:56.461Z,100856.55
2023-04-30T06:39:26.640Z,100857.02
2023-04-30T06:41:58.342Z,100852.66
2023-04-30T06:44:32.956Z,100853.64
2023-04-30T06:47:10.513Z,100850.02
2023-04-30T06:49:46.123Z,100849.75
2023-04-30T06:52:17.624Z,100849.55
2023-04-30T06:54:49.682Z,100851.20
2023-04-30T06:57:19.394Z,100850.40
2023-04-30T06:59:58.275Z,100852.90
2023-04-30T07:02:45.396Z,100856.60
2023-04-30T07:05:28.828Z,100859.40
2023-04-30T07:08:06.620Z,100862.29
2023-04-30T07:10:59.585Z,100866.62
2023-04-30T07:13:33.998Z,100871.86
2023-04-30T07:16:03.730Z,100870.79
2023-04-30T07:18:41.345Z,100869.64
2023-04-30T07:21:17.720Z,100872.55
2023-04-30T07:23:59.039Z,100871.91
2023-04-30T07:26:39.069Z,100872.55
2023-04-30T07:29:31.729Z,100878.48
2023-04-30T07:32:09.206Z,100877.16
2023-04-30T07:34:46.081Z,100875.00
2023-04-30T07:37:16.176Z,100876.20
2023-04-30T07:39:59.587Z,100879.35
2023-04-30T07:42:48.687Z,100880.50
2023-04-30T07:45:34.678Z,100880.61
2023-04-30T07:48:07.059Z,100883.95
2023-04-30T07:50:40.728Z,100884.65
2023-04-30T07:53:12.349Z,100886.96
2023-04-30T07:55:41.122Z,100886.84
2023-04-30T07:58:09.886Z,100894.02
2023-04-30T08:00:38.619Z,100897.52
2023-04-30T08:03:08.138Z,100895.61
2023-04-30T08:05:36.847Z,100895.70
2023-04-30T08:08:13.238Z,100899.16
2023-04-30T08:10:42.251Z,100902.76
2023-04-30T08:13:11.203Z,100904.23
2023-04-30T08:15:40.187Z,100897.41
2023-04-30T08:18:11.453Z,100898.15
2023-04-30T08:20:40.979Z,100904.36
2023-04-30T08:23:20.266Z,100898.75
2023-04-30T08:25:57.198Z,100899.72
2023-04-30T08:28:46.991Z,100904.25
2023-04-30T08:31:45.023Z,100910.86
2023-04-30T08:34:25.596Z,100910.61
2023-04-30T08:37:00.503Z,100912.61
2023-04-30T08:43:45.854Z,100913.55
2023-04-30T08:47:05.616Z,100917.51
2023-04-30T08:50:09.547Z,100921.10
2023-04-30T08:52:40.176Z,100916.42
2023-04-30T08:55:17.038Z,100922.41
2023-04-30T08:58:02.123Z,100921.91
2023-04-30T09:00:41.100Z,100918.80
2023-04-30T09:03:23.382Z,100914.13
2023-04-30T09:06:00.966Z,100921.61
2023-04-30T09:08:58.445Z,100926.08
2023-04-30T09:11:37.578Z,100923.51
2023-04-30T09:14:27.474Z,100925.30
2023-04-30T09:17:35.901Z,100927.54
2023-04-30T09:20:30.124Z,100933.45
2023-04-30T09:23:23.157Z,100937.39
2023-04-30T09:26:06.540Z,100928.64
2023-04-30T09:28:41.690Z,100933.11
2023-04-30T09:31:29.657Z,100935.94
2023-04-30T09:34:04.280Z,100940.90
2023-04-30T09:37:12.456Z,100945.63
2023-04-30T09:39:57.765Z,100950.60
2023-04-30T09:42:27.239Z,100942.55
2023-04-30T09:45:13.338Z,100946.40
2023-04-30T09:47:42.809Z,100950.94
2023-04-30T09:50:13.954Z,100946.93
2023-04-30T09:52:54.165Z,100947.81
2023-04-30T09:55:23.618Z,100941.75
2023-04-30T10:01:16.428Z,100945.27
2023-04-30T10:03:52.626Z,100939.11
2023-04-30T10:06:35.168Z,100941.89
2023-04-30T10:09:30.512Z,100940.78
2023-04-30T10:12:20.158Z,100935.63
2023-04-30T10:15:32.332Z,100931.55
2023-04-30T10:18:26.559Z,100926.70
2023-04-30T10:21:31.216Z,100922.89
2023-04-30T10:24:42.033Z,100921.45
2023-04-30T10:27:19.972Z,100915.41
2023-04-30T10:30:09.405Z,100926.39
2023-04-30T10:33:52.604Z,100926.48
2023-04-30T10:37:02.271Z,100923.91
2023-04-30T10:39:49.366Z,100919.63
2023-04-30T10:42:24.106Z,100914.63
2023-04-30T10:45:10.414Z,100910.56
2023-04-30T10:47:58.013Z,100911.67
2023-04-30T10:50:32.337Z,100911.73
2023-04-30T10:53:07.464Z,100912.84
2023-04-30T10:56:11.579Z,100917.15
2023-04-30T10:58:46.093Z,100922.23
2023-04-30T11:01:25.977Z,100921.34
2023-04-30T11:04:27.369Z,100918.07
2023-04-30T11:07:15.117Z,100917.55
2023-04-30T11:10:08.613Z,100920.82
2023-04-30T11:12:48.398Z,100920.50
2023-04-30T11:15:44.478Z,100920.58
2023-04-30T11:18:21.640Z,100922.21
2023-04-30T11:21:13.019Z,100926.36
2023-04-30T11:24:17.351Z,100919.07
2023-04-30T11:27:08.136Z,100919.45
2023-04-30T11:29:46.584Z,100923.08
2023-04-30T11:32:22.750Z,100924.93
2023-04-30T11:34:54.416Z,100919.39
2023-04-30T11:37:42.773Z,100918.55
2023-04-30T11:40:31.340Z,100915.67
2023-04-30T11:43:29.056Z,100913.77
2023-04-30T11:46:20.599Z,100915.73
2023-04-30T11:48:49.583Z,100916.24
2023-04-30T11:51:24.723Z,100920.41
2023-04-30T11:53:58.200Z,100921.70
2023-04-30T11:56:27.549Z,100914.30
2023-04-30T12:00:35.985Z,100916.25
2023-04-30T12:03:47.193Z,100914.40
2023-04-30T12:06:52.825Z,100921.19
2023-04-30T12:09:55.737Z,100920.44
2023-04-30T12:12:54.872Z,100920.10
2023-04-30T12:15:39.367Z,100908.52
2023-04-30T12:18:17.100Z,100912.42
2023-04-30T12:20:45.825Z,100916.80
2023-04-30T12:23:17.507Z,100916.27
2023-04-30T12:25:59.114Z,100916.21
2023-04-30T12:28:40.751Z,100917.98
2023-04-30T12:31:19.243Z,100917.57
2023-04-30T12:34:12.806Z,100914.41
2023-04-30T12:36:59.723Z,100917.91
2023-04-30T12:40:10.747Z,100911.89
2023-04-30T12:42:43.740Z,100909.95
2023-04-30T12:45:50.769Z,100909.35
2023-04-30T12:48:23.035Z,100906.64
2023-04-30T12:51:05.329Z,100901.06
2023-04-30T12:53:34.633Z,100901.66
2023-04-30T12:56:31.621Z,100900.29
2023-04-30T12:59:14.055Z,100900.97
2023-04-30T13:01:46.171Z,100901.30
2023-04-30T13:04:23.451Z,100896.77
2023-04-30T13:06:57.283Z,100897.34
2023-04-30T13:09:38.784Z,100893.80
2023-04-30T13:12:22.751Z,100892.12
2023-04-30T13:15:02.971Z,100890.52
2023-04-30T13:18:12.737Z,100892.53
2023-04-30T13:20:43.730Z,100884.44
2023-04-30T13:23:18.210Z,100889.38
2023-04-30T13:25:53.723Z,100889.13
2023-04-30T13:28:25.531Z,100884.86
2023-04-30T13:30:58.213Z,100882.59
2023-04-30T13:33:34.306Z,100882.18
2023-04-30T13:36:07.482Z,100881.66
2023-04-30T13:38:41.840Z,100881.20
2023-04-30T13:41:23.842Z,100879.27
2023-04-30T13:43:56.183Z,100876.03
2023-04-30T13:46:32.989Z,100874.33
2023-04-30T13:49:11.458Z,100881.34
2023-04-30T13:51:40.141Z,100879.39
2023-04-30T13:54:11.687Z,100881.54
2023-04-30T13:57:22.721Z,100880.21
2023-04-30T14:00:15.579Z,100875.87
2023-04-30T14:02:53.069Z,100877.39
2023-04-30T14:05:47.199Z,100876.56
2023-04-30T14:08:25.663Z,100876.98
2023-04-30T14:11:21.999Z,100872.55
2023-04-30T14:14:27.950Z,100871.11
2023-04-30T14:17:06.329Z,100873.23
2023-04-30T14:20:09.886Z,100875.55
2023-04-30T14:22:48.631Z,100869.64
2023-04-30T14:25:29.493Z,100876.48
2023-04-30T14:28:20.607Z,100878.88
2023-04-30T14:31:29.631Z,100876.05
2023-04-30T14:34:28.991Z,100872.11
2023-04-30T14:37:05.838Z,100876.15
2023-04-30T14:39:57.719Z,100882.14
2023-04-30T14:43:13.569Z,100878.66
2023-04-30T14:46:02.693Z,100876.40
2023-04-30T14:48:46.871Z,100878.66
2023-04-30T14:51:22.942Z,100874.88
2023-04-30T14:53:59.832Z,100873.92
2023-04-30T15:00:09.461Z,100877.06
2023-04-30T15:02:54.782Z,100879.09
2023-04-30T15:05:36.213Z,100878.55
2023-04-30T15:08:33.813Z,100874.97
2023-04-30T15:11:24.004Z,100877.73
2023-04-30T15:13:56.790Z,100873.02
2023-04-30T15:16:31.477Z,100875.10
2023-04-30T15:19:10.804Z,100868.15
2023-04-30T15:21:48.842Z,100869.69
2023-04-30T15:24:23.782Z,100874.73
2023-04-30T15:27:06.225Z,100870.39
2023-04-30T15:29:45.310Z,100870.46
2023-04-30T15:32:21.152Z,100870.59
2023-04-30T15:34:56.585Z,100867.46
2023-04-30T15:37:28.020Z,100858.11
2023-04-30T15:40:22.201Z,100867.36
2023-04-30T15:43:05.697Z,100866.85
2023-04-30T15:45:38.582Z,100868.85
2023-04-30T15:48:13.807Z,100864.58
2023-04-30T15:50:53.297Z,100865.58
2023-04-30T15:53:26.619Z,100867.21
2023-04-30T15:55:58.734Z,100871.52
2023-04-30T15:58:31.519Z,100869.63
2023-04-30T16:01:01.755Z,100858.33
2023-04-30T16:03:31.236Z,100866.56
2023-04-30T16:06:03.616Z,100865.27
2023-04-30T16:08:33.971Z,100865.65
2023-04-30T16:11:06.402Z,100865.06
2023-04-30T16:13:49.911Z,100857.42
2023-04-30T16:16:27.350Z,100859.75
2023-04-30T16:19:13.306Z,100848.98
2023-04-30T16:21:50.426Z,100854.77
2023-04-30T16:24:28.832Z,100854.56
2023-04-30T16:26:58.386Z,100860.82
2023-04-30T16:29:42.229Z,100860.53
2023-04-30T16:32:14.050Z,100860.42
2023-04-30T16:34:50.065Z,100865.69
2023-04-30T16:37:32.709Z,100862.96
2023-04-30T16:40:18.592Z,100851.98
2023-04-30T16:43:41.568Z,100850.27
2023-04-30T16:47:03.494Z,100853.33
2023-04-30T16:50:33.280Z,100853.77
2023-04-30T16:53:17.327Z,100857.63
2023-04-30T16:56:07.131Z,100860.86
2023-04-30T17:02:00.577Z,100873.41
2023-04-30T17:04:44.277Z,100872.38
2023-04-30T17:08:13.259Z,100873.31
2023-04-30T17:10:43.088Z,100874.32
2023-04-30T17:13:18.499Z,100873.63
2023-04-30T17:16:03.432Z,100873.13
2023-04-30T17:18:40.471Z,100872.26
2023-04-30T17:21:11.680Z,100869.61
2023-04-30T17:24:01.993Z,100867.85
2023-04-30T17:26:31.775Z,100868.45
2023-04-30T17:29:16.475Z,100868.58
2023-04-30T17:31:49.962Z,100871.05
2023-04-30T17:34:24.658Z,100869.45
2023-04-30T17:37:01.052Z,100870.45
2023-04-30T17:39:39.966Z,100873.78
2023-04-30T17:42:08.421Z,100878.23
2023-04-30T17:45:08.132Z,100880.51
2023-04-30T17:48:40.064Z,100882.93
2023-04-30T17:51:34.467Z,100881.15
2023-04-30T17:54:30.475Z,100881.05
2023-04-30T18:01:27.581Z,100887.42
2023-04-30T18:41:38.583Z,100924.34
2023-04-30T18:47:46.470Z,100923.64
2023-04-30T18:52:09.688Z,100924.04
2023-04-30T18:58:59.553Z,100928.23
2023-04-30T19:01:57.700Z,100930.81
2023-04-30T19:07:44.472Z,100927.25
2023-04-30T19:11:06.900Z,100928.08
2023-04-30T19:14:06.237Z,100930.33
2023-04-30T19:17:10.582Z,100929.89
2023-04-30T19:20:05.410Z,100932.77
2023-04-30T19:23:01.059Z,100935.08
2023-04-30T19:26:08.128Z,100937.21
2023-04-30T19:28:37.187Z,100941.67
2023-04-30T19:31:12.327Z,100938.23
2023-04-30T19:33:56.655Z,100936.70
2023-04-30T19:36:43.815Z,100937.66
2023-04-30T19:40:03.650Z,100937.36
2023-04-30T19:42:57.487Z,100941.08
2023-04-30T19:45:55.666Z,100940.10
2023-04-30T19:48:30.994Z,100942.05
2023-04-30T19:51:10.949Z,100944.02
2023-04-30T19:53:51.921Z,100944.34
2023-04-30T19:57:26.322Z,100945.03
2023-04-30T20:01:05.970Z,100945.67
2023-04-30T20:03:49.670Z,100947.74
2023-04-30T20:06:20.725Z,100947.88
2023-04-30T20:08:55.861Z,100947.66
2023-04-30T20:11:35.919Z,100949.16
2023-04-30T20:14:12.761Z,100952.93
2023-04-30T20:16:46.347Z,100945.02
2023-04-30T20:19:45.922Z,100954.06
2023-04-30T20:22:19.268Z,100954.11
2023-04-30T20:25:09.746Z,100953.95
2023-04-30T20:27:42.614Z,100956.66
2023-04-30T20:30:20.345Z,100959.52
2023-04-30T20:33:01.882Z,100959.39
2023-04-30T20:36:11.671Z,100958.25
2023-04-30T20:39:10.274Z,100959.03
2023-04-30T20:42:21.889Z,100957.92
2023-04-30T20:45:10.738Z,100961.80
2023-04-30T20:47:51.454Z,100960.98
2023-04-30T20:50:38.740Z,100962.05
2023-04-30T20:53:17.051Z,100962.13
2023-04-30T20:56:44.746Z,100964.42
2023-04-30T20:59:34.008Z,100970.60
2023-04-30T21:02:27.775Z,100974.48
2023-04-30T21:05:17.234Z,100980.31
2023-04-30T21:08:02.655Z,100984.20
2023-04-30T21:10:44.398Z,100987.40
2023-04-30T21:13:34.300Z,100984.89
2023-04-30T21:16:19.001Z,100981.88
2023-04-30T21:19:36.695Z,100986.52
2023-04-30T21:26:41.132Z,100985.80
2023-04-30T21:29:36.405Z,100987.91
2023-04-30T21:33:00.770Z,100987.45
2023-04-30T21:35:45.504Z,100989.71
2023-04-30T21:38:35.182Z,100990.09
2023-04-30T21:42:02.057Z,100987.27
2023-04-30T21:44:59.162Z,100989.52
2023-04-30T21:48:08.092Z,100994.50
2023-04-30T21:51:24.728Z,100998.11
2023-04-30T21:54:19.400Z,100999.58
2023-04-30T21:57:06.236Z,100995.14
2023-04-30T21:59:44.015Z,101003.33
2023-04-30T22:02:47.663Z,101008.49
2023-04-30T22:12:32.190Z,101008.95
2023-04-30T22:15:23.194Z,101014.90
2023-04-30T22:18:48.052Z,101018.06
2023-04-30T22:21:27.417Z,101024.89
2023-04-30T22:24:55.573Z,101026.86
2023-04-30T22:28:32.320Z,101025.76
2023-04-30T22:31:56.890Z,101025.99
2023-04-30T22:35:14.079Z,101026.05
2023-04-30T22:38:03.340Z,101027.45
2023-04-30T22:41:04.392Z,101024.03
2023-04-30T22:43:36.726Z,101024.08
2023-04-30T22:50:18.113Z,101028.17
2023-04-30T22:53:39.008Z,101031.20
2023-04-30T22:57:11.446Z,101034.74
2023-04-30T23:00:27.089Z,101032.70
2023-04-30T23:04:19.998Z,101034.10
2023-04-30T23:08:09.512Z,101042.08
2023-04-30T23:14:36.396Z,101045.58
2023-04-30T23:17:58.673Z,101042.50
2023-04-30T23:31:40.414Z,101040.04
2023-04-30T23:34:39.177Z,101038.02
2023-04-30T23:37:51.557Z,101039.56
2023-04-30T23:41:01.034Z,101039.31
2023-04-30T23:43:46.191Z,101040.40
2023-04-30T23:46:29.059Z,101042.63
2023-04-30T23:49:00.154Z,101041.52
2023-04-30T23:51:42.911Z,101039.52
2023-04-30T23:54:25.001Z,101039.13
2023-04-30T23:56:58.983Z,101039.39
2023-04-30T23:59:39.746Z,101037.55
